sensor_id;sensor_type;location;lat;lon;timestamp;P1;durP1;ratioP1;P2;durP2;ratioP2
41309;SDS011;27057;51.438;-0.010;2022-11-30T00:01:10;89.43;;;29.95;;
41309;SDS011;27057;51.438;-0.010;2022-11-30T00:03:42;100.85;;;29.05;;
41309;SDS011;27057;51.438;-0.010;2022-11-30T00:06:10;88.05;;;28.45;;
41309;SDS011;27057;51.438;-0.010;2022-11-30T00:08:40;88.75;;;29.70;;
41309;SDS011;27057;51.438;-0.010;2022-11-30T00:11:11;79.35;;;28.17;;
41309;SDS011;27057;51.438;-0.010;2022-11-30T00:13:40;82.53;;;30.25;;
41309;SDS011;27057;51.438;-0.010;2022-11-30T00:16:07;83.90;;;29.80;;
41309;SDS011;27057;51.438;-0.010;2022-11-30T00:18:35;85.93;;;30.20;;
41309;SDS011;27057;51.438;-0.010;2022-11-30T00:21:04;80.70;;;27.90;;
41309;SDS011;27057;51.438;-0.010;2022-11-30T00:23:37;91.00;;;28.88;;
41309;SDS011;27057;51.438;-0.010;2022-11-30T00:26:09;75.03;;;27.42;;
41309;SDS011;27057;51.438;-0.010;2022-11-30T00:28:39;81.35;;;28.50;;
41309;SDS011;27057;51.438;-0.010;2022-11-30T00:31:10;78.85;;;27.17;;
41309;SDS011;27057;51.438;-0.010;2022-11-30T00:33:40;82.22;;;27.77;;
41309;SDS011;27057;51.438;-0.010;2022-11-30T00:36:09;79.68;;;25.20;;
41309;SDS011;27057;51.438;-0.010;2022-11-30T00:38:41;74.53;;;25.90;;
41309;SDS011;27057;51.438;-0.010;2022-11-30T00:41:09;63.97;;;24.83;;
41309;SDS011;27057;51.438;-0.010;2022-11-30T00:43:37;73.15;;;25.30;;
41309;SDS011;27057;51.438;-0.010;2022-11-30T00:46:05;82.00;;;24.92;;
41309;SDS011;27057;51.438;-0.010;2022-11-30T00:48:32;73.57;;;26.30;;
41309;SDS011;27057;51.438;-0.010;2022-11-30T00:51:00;69.75;;;25.85;;
41309;SDS011;27057;51.438;-0.010;2022-11-30T00:53:27;66.80;;;25.67;;
41309;SDS011;27057;51.438;-0.010;2022-11-30T00:55:54;74.80;;;24.83;;
41309;SDS011;27057;51.438;-0.010;2022-11-30T00:58:22;70.55;;;24.27;;
41309;SDS011;27057;51.438;-0.010;2022-11-30T01:00:49;77.50;;;25.02;;
41309;SDS011;27057;51.438;-0.010;2022-11-30T01:03:16;69.57;;;25.98;;
41309;SDS011;27057;51.438;-0.010;2022-11-30T01:05:44;66.25;;;24.08;;
41309;SDS011;27057;51.438;-0.010;2022-11-30T01:08:11;66.93;;;25.13;;
41309;SDS011;27057;51.438;-0.010;2022-11-30T01:10:40;62.45;;;23.98;;
41309;SDS011;27057;51.438;-0.010;2022-11-30T01:13:10;70.28;;;25.77;;
41309;SDS011;27057;51.438;-0.010;2022-11-30T01:15:39;68.70;;;24.08;;
41309;SDS011;27057;51.438;-0.010;2022-11-30T01:18:09;70.00;;;23.92;;
41309;SDS011;27057;51.438;-0.010;2022-11-30T01:20:40;61.50;;;24.20;;
41309;SDS011;27057;51.438;-0.010;2022-11-30T01:23:08;70.07;;;24.75;;
41309;SDS011;27057;51.438;-0.010;2022-11-30T01:25:38;65.78;;;22.70;;
41309;SDS011;27057;51.438;-0.010;2022-11-30T01:28:05;57.65;;;21.48;;
41309;SDS011;27057;51.438;-0.010;2022-11-30T01:30:35;60.80;;;21.63;;
41309;SDS011;27057;51.438;-0.010;2022-11-30T01:33:03;68.18;;;23.25;;
41309;SDS011;27057;51.438;-0.010;2022-11-30T01:35:31;66.53;;;23.90;;
41309;SDS011;27057;51.438;-0.010;2022-11-30T01:37:59;71.35;;;25.45;;
41309;SDS011;27057;51.438;-0.010;2022-11-30T01:40:26;67.80;;;23.88;;
41309;SDS011;27057;51.438;-0.010;2022-11-30T01:42:53;70.63;;;22.38;;
41309;SDS011;27057;51.438;-0.010;2022-11-30T01:45:20;62.40;;;22.70;;
41309;SDS011;27057;51.438;-0.010;2022-11-30T01:47:51;64.82;;;22.90;;
41309;SDS011;27057;51.438;-0.010;2022-11-30T01:50:25;67.90;;;23.20;;
41309;SDS011;27057;51.438;-0.010;2022-11-30T01:52:56;86.22;;;20.50;;
41309;SDS011;27057;51.438;-0.010;2022-11-30T02:00:38;57.65;;;20.17;;
41309;SDS011;27057;51.438;-0.010;2022-11-30T02:06:09;59.88;;;20.75;;
41309;SDS011;27057;51.438;-0.010;2022-11-30T02:08:37;62.95;;;21.67;;
41309;SDS011;27057;51.438;-0.010;2022-11-30T02:11:07;66.78;;;22.63;;
41309;SDS011;27057;51.438;-0.010;2022-11-30T02:21:45;63.10;;;21.20;;
41309;SDS011;27057;51.438;-0.010;2022-11-30T02:24:35;55.03;;;21.98;;
41309;SDS011;27057;51.438;-0.010;2022-11-30T02:29:51;68.60;;;21.58;;
41309;SDS011;27057;51.438;-0.010;2022-11-30T02:32:32;48.45;;;21.17;;
41309;SDS011;27057;51.438;-0.010;2022-11-30T02:35:05;55.42;;;17.95;;
41309;SDS011;27057;51.438;-0.010;2022-11-30T02:37:34;61.17;;;22.85;;
41309;SDS011;27057;51.438;-0.010;2022-11-30T02:40:08;63.22;;;19.40;;
41309;SDS011;27057;51.438;-0.010;2022-11-30T02:42:36;58.47;;;19.50;;
41309;SDS011;27057;51.438;-0.010;2022-11-30T02:45:03;60.40;;;19.98;;
41309;SDS011;27057;51.438;-0.010;2022-11-30T02:47:35;51.35;;;19.52;;
41309;SDS011;27057;51.438;-0.010;2022-11-30T02:50:20;53.50;;;19.80;;
41309;SDS011;27057;51.438;-0.010;2022-11-30T02:52:55;48.33;;;19.95;;
41309;SDS011;27057;51.438;-0.010;2022-11-30T02:55:23;62.47;;;20.33;;
41309;SDS011;27057;51.438;-0.010;2022-11-30T02:57:51;53.67;;;20.83;;
41309;SDS011;27057;51.438;-0.010;2022-11-30T03:00:18;48.50;;;20.67;;
41309;SDS011;27057;51.438;-0.010;2022-11-30T03:02:46;53.00;;;19.33;;
41309;SDS011;27057;51.438;-0.010;2022-11-30T03:05:13;51.70;;;17.55;;
41309;SDS011;27057;51.438;-0.010;2022-11-30T03:07:40;51.05;;;20.05;;
41309;SDS011;27057;51.438;-0.010;2022-11-30T03:10:08;53.63;;;17.88;;
41309;SDS011;27057;51.438;-0.010;2022-11-30T03:12:36;47.45;;;18.42;;
41309;SDS011;27057;51.438;-0.010;2022-11-30T03:15:04;56.70;;;20.13;;
41309;SDS011;27057;51.438;-0.010;2022-11-30T03:17:32;51.47;;;18.75;;
41309;SDS011;27057;51.438;-0.010;2022-11-30T03:19:59;56.70;;;20.45;;
41309;SDS011;27057;51.438;-0.010;2022-11-30T03:22:26;51.45;;;18.52;;
41309;SDS011;27057;51.438;-0.010;2022-11-30T03:24:54;43.03;;;16.90;;
41309;SDS011;27057;51.438;-0.010;2022-11-30T03:27:21;52.08;;;19.33;;
41309;SDS011;27057;51.438;-0.010;2022-11-30T03:29:49;62.13;;;17.77;;
41309;SDS011;27057;51.438;-0.010;2022-11-30T03:32:17;50.85;;;19.25;;
41309;SDS011;27057;51.438;-0.010;2022-11-30T03:34:44;45.08;;;18.15;;
41309;SDS011;27057;51.438;-0.010;2022-11-30T03:37:12;56.28;;;17.42;;
41309;SDS011;27057;51.438;-0.010;2022-11-30T03:39:39;57.13;;;17.95;;
41309;SDS011;27057;51.438;-0.010;2022-11-30T03:42:07;51.00;;;17.25;;
41309;SDS011;27057;51.438;-0.010;2022-11-30T03:44:34;45.28;;;17.40;;
41309;SDS011;27057;51.438;-0.010;2022-11-30T03:47:01;53.88;;;20.25;;
41309;SDS011;27057;51.438;-0.010;2022-11-30T03:49:28;50.97;;;17.92;;
41309;SDS011;27057;51.438;-0.010;2022-11-30T03:51:56;51.40;;;18.35;;
41309;SDS011;27057;51.438;-0.010;2022-11-30T03:54:23;63.33;;;19.10;;
41309;SDS011;27057;51.438;-0.010;2022-11-30T03:56:50;51.10;;;19.52;;
41309;SDS011;27057;51.438;-0.010;2022-11-30T03:59:17;61.17;;;19.40;;
41309;SDS011;27057;51.438;-0.010;2022-11-30T04:01:45;46.58;;;17.88;;
41309;SDS011;27057;51.438;-0.010;2022-11-30T04:04:12;53.88;;;19.02;;
41309;SDS011;27057;51.438;-0.010;2022-11-30T04:06:40;42.72;;;17.48;;
41309;SDS011;27057;51.438;-0.010;2022-11-30T04:09:08;48.45;;;17.98;;
41309;SDS011;27057;51.438;-0.010;2022-11-30T04:11:35;44.65;;;16.73;;
41309;SDS011;27057;51.438;-0.010;2022-11-30T04:14:03;47.95;;;17.48;;
41309;SDS011;27057;51.438;-0.010;2022-11-30T04:16:30;66.45;;;19.25;;
41309;SDS011;27057;51.438;-0.010;2022-11-30T04:18:57;52.20;;;18.00;;
41309;SDS011;27057;51.438;-0.010;2022-11-30T04:21:25;46.92;;;17.77;;
41309;SDS011;27057;51.438;-0.010;2022-11-30T04:23:52;57.65;;;18.88;;
41309;SDS011;27057;51.438;-0.010;2022-11-30T04:26:20;49.08;;;18.10;;
41309;SDS011;27057;51.438;-0.010;2022-11-30T04:28:47;43.20;;;17.30;;
41309;SDS011;27057;51.438;-0.010;2022-11-30T04:31:14;53.67;;;18.80;;
41309;SDS011;27057;51.438;-0.010;2022-11-30T04:33:42;44.42;;;17.35;;
41309;SDS011;27057;51.438;-0.010;2022-11-30T04:36:17;41.75;;;17.02;;
41309;SDS011;27057;51.438;-0.010;2022-11-30T04:38:46;53.92;;;17.65;;
41309;SDS011;27057;51.438;-0.010;2022-11-30T04:41:13;48.83;;;17.50;;
41309;SDS011;27057;51.438;-0.010;2022-11-30T04:43:41;49.25;;;17.88;;
41309;SDS011;27057;51.438;-0.010;2022-11-30T04:46:08;48.22;;;17.67;;
41309;SDS011;27057;51.438;-0.010;2022-11-30T04:48:36;47.55;;;17.38;;
41309;SDS011;27057;51.438;-0.010;2022-11-30T04:51:04;48.17;;;19.38;;
41309;SDS011;27057;51.438;-0.010;2022-11-30T04:53:33;59.15;;;17.80;;
41309;SDS011;27057;51.438;-0.010;2022-11-30T04:56:05;55.50;;;17.77;;
41309;SDS011;27057;51.438;-0.010;2022-11-30T04:58:34;52.08;;;18.65;;
41309;SDS011;27057;51.438;-0.010;2022-11-30T05:01:01;40.40;;;16.50;;
41309;SDS011;27057;51.438;-0.010;2022-11-30T05:03:29;46.45;;;17.20;;
41309;SDS011;27057;51.438;-0.010;2022-11-30T05:05:56;52.53;;;19.20;;
41309;SDS011;27057;51.438;-0.010;2022-11-30T05:08:23;45.85;;;16.67;;
41309;SDS011;27057;51.438;-0.010;2022-11-30T05:10:53;38.25;;;16.10;;
41309;SDS011;27057;51.438;-0.010;2022-11-30T05:13:23;48.30;;;17.23;;
41309;SDS011;27057;51.438;-0.010;2022-11-30T05:15:52;39.15;;;15.52;;
41309;SDS011;27057;51.438;-0.010;2022-11-30T05:18:20;37.90;;;14.25;;
41309;SDS011;27057;51.438;-0.010;2022-11-30T05:20:48;52.45;;;16.70;;
41309;SDS011;27057;51.438;-0.010;2022-11-30T05:23:16;55.88;;;18.60;;
41309;SDS011;27057;51.438;-0.010;2022-11-30T05:25:44;48.58;;;17.75;;
41309;SDS011;27057;51.438;-0.010;2022-11-30T05:28:12;45.72;;;16.00;;
41309;SDS011;27057;51.438;-0.010;2022-11-30T05:30:40;44.38;;;16.02;;
41309;SDS011;27057;51.438;-0.010;2022-11-30T05:33:08;47.50;;;16.95;;
41309;SDS011;27057;51.438;-0.010;2022-11-30T05:35:36;47.88;;;17.20;;
41309;SDS011;27057;51.438;-0.010;2022-11-30T05:38:04;55.17;;;17.10;;
41309;SDS011;27057;51.438;-0.010;2022-11-30T05:40:31;49.20;;;16.77;;
41309;SDS011;27057;51.438;-0.010;2022-11-30T05:42:59;46.60;;;16.73;;
41309;SDS011;27057;51.438;-0.010;2022-11-30T05:45:28;57.92;;;17.95;;
41309;SDS011;27057;51.438;-0.010;2022-11-30T05:47:56;52.20;;;17.95;;
41309;SDS011;27057;51.438;-0.010;2022-11-30T05:50:23;48.65;;;17.13;;
41309;SDS011;27057;51.438;-0.010;2022-11-30T05:52:51;51.53;;;18.13;;
41309;SDS011;27057;51.438;-0.010;2022-11-30T05:55:22;52.42;;;18.63;;
41309;SDS011;27057;51.438;-0.010;2022-11-30T05:57:50;58.22;;;18.08;;
41309;SDS011;27057;51.438;-0.010;2022-11-30T06:00:18;55.92;;;18.77;;
41309;SDS011;27057;51.438;-0.010;2022-11-30T06:02:46;58.50;;;19.13;;
41309;SDS011;27057;51.438;-0.010;2022-11-30T06:05:14;49.15;;;18.48;;
41309;SDS011;27057;51.438;-0.010;2022-11-30T06:07:41;59.30;;;19.35;;
41309;SDS011;27057;51.438;-0.010;2022-11-30T06:10:09;56.13;;;19.65;;
41309;SDS011;27057;51.438;-0.010;2022-11-30T06:12:37;51.70;;;19.58;;
41309;SDS011;27057;51.438;-0.010;2022-11-30T06:15:04;63.38;;;20.63;;
41309;SDS011;27057;51.438;-0.010;2022-11-30T06:17:32;75.95;;;20.35;;
41309;SDS011;27057;51.438;-0.010;2022-11-30T06:19:59;68.38;;;21.05;;
41309;SDS011;27057;51.438;-0.010;2022-11-30T06:22:26;68.50;;;21.85;;
41309;SDS011;27057;51.438;-0.010;2022-11-30T06:24:54;60.38;;;22.73;;
41309;SDS011;27057;51.438;-0.010;2022-11-30T06:27:21;66.65;;;21.50;;
41309;SDS011;27057;51.438;-0.010;2022-11-30T06:29:48;61.92;;;22.10;;
41309;SDS011;27057;51.438;-0.010;2022-11-30T06:32:16;64.35;;;21.75;;
41309;SDS011;27057;51.438;-0.010;2022-11-30T06:34:43;53.53;;;20.25;;
41309;SDS011;27057;51.438;-0.010;2022-11-30T06:37:11;61.45;;;20.55;;
41309;SDS011;27057;51.438;-0.010;2022-11-30T06:39:38;56.55;;;21.60;;
41309;SDS011;27057;51.438;-0.010;2022-11-30T06:42:27;60.33;;;21.10;;
41309;SDS011;27057;51.438;-0.010;2022-11-30T06:44:55;59.67;;;20.88;;
41309;SDS011;27057;51.438;-0.010;2022-11-30T06:47:23;63.47;;;22.52;;
41309;SDS011;27057;51.438;-0.010;2022-11-30T06:49:51;61.53;;;20.42;;
41309;SDS011;27057;51.438;-0.010;2022-11-30T06:52:19;76.82;;;24.98;;
41309;SDS011;27057;51.438;-0.010;2022-11-30T06:54:46;55.08;;;22.45;;
41309;SDS011;27057;51.438;-0.010;2022-11-30T06:57:14;62.83;;;22.17;;
41309;SDS011;27057;51.438;-0.010;2022-11-30T06:59:41;61.70;;;21.60;;
41309;SDS011;27057;51.438;-0.010;2022-11-30T07:02:12;67.13;;;21.73;;
41309;SDS011;27057;51.438;-0.010;2022-11-30T07:04:44;67.13;;;20.08;;
41309;SDS011;27057;51.438;-0.010;2022-11-30T07:07:13;61.88;;;20.70;;
41309;SDS011;27057;51.438;-0.010;2022-11-30T07:09:40;56.67;;;21.63;;
41309;SDS011;27057;51.438;-0.010;2022-11-30T07:12:08;59.30;;;23.15;;
41309;SDS011;27057;51.438;-0.010;2022-11-30T07:14:35;61.95;;;23.77;;
41309;SDS011;27057;51.438;-0.010;2022-11-30T07:17:02;60.38;;;22.48;;
41309;SDS011;27057;51.438;-0.010;2022-11-30T07:19:30;63.90;;;25.00;;
41309;SDS011;27057;51.438;-0.010;2022-11-30T07:22:00;77.50;;;26.35;;
41309;SDS011;27057;51.438;-0.010;2022-11-30T07:24:27;64.85;;;25.77;;
41309;SDS011;27057;51.438;-0.010;2022-11-30T07:27:14;55.85;;;21.48;;
41309;SDS011;27057;51.438;-0.010;2022-11-30T07:29:41;62.63;;;23.10;;
41309;SDS011;27057;51.438;-0.010;2022-11-30T07:32:09;63.60;;;23.75;;
41309;SDS011;27057;51.438;-0.010;2022-11-30T07:34:36;70.22;;;23.60;;
41309;SDS011;27057;51.438;-0.010;2022-11-30T07:37:03;76.80;;;25.02;;
41309;SDS011;27057;51.438;-0.010;2022-11-30T07:39:31;74.65;;;25.55;;
41309;SDS011;27057;51.438;-0.010;2022-11-30T07:41:58;77.05;;;26.27;;
41309;SDS011;27057;51.438;-0.010;2022-11-30T07:44:25;80.38;;;25.67;;
41309;SDS011;27057;51.438;-0.010;2022-11-30T07:46:53;75.20;;;23.52;;
41309;SDS011;27057;51.438;-0.010;2022-11-30T07:49:20;68.53;;;22.52;;
41309;SDS011;27057;51.438;-0.010;2022-11-30T07:51:47;57.80;;;20.80;;
41309;SDS011;27057;51.438;-0.010;2022-11-30T07:54:15;64.15;;;22.42;;
41309;SDS011;27057;51.438;-0.010;2022-11-30T07:56:42;69.55;;;22.83;;
41309;SDS011;27057;51.438;-0.010;2022-11-30T07:59:09;73.95;;;22.27;;
41309;SDS011;27057;51.438;-0.010;2022-11-30T08:01:36;73.65;;;22.95;;
41309;SDS011;27057;51.438;-0.010;2022-11-30T08:04:04;69.72;;;24.15;;
41309;SDS011;27057;51.438;-0.010;2022-11-30T08:06:31;81.63;;;24.83;;
41309;SDS011;27057;51.438;-0.010;2022-11-30T08:09:00;76.57;;;24.33;;
41309;SDS011;27057;51.438;-0.010;2022-11-30T08:11:31;72.55;;;24.13;;
41309;SDS011;27057;51.438;-0.010;2022-11-30T08:14:00;90.20;;;25.40;;
41309;SDS011;27057;51.438;-0.010;2022-11-30T08:16:29;92.70;;;27.48;;
41309;SDS011;27057;51.438;-0.010;2022-11-30T08:18:59;86.13;;;26.00;;
41309;SDS011;27057;51.438;-0.010;2022-11-30T08:21:27;77.13;;;23.95;;
41309;SDS011;27057;51.438;-0.010;2022-11-30T08:23:55;77.72;;;24.85;;
41309;SDS011;27057;51.438;-0.010;2022-11-30T08:28:53;62.38;;;20.58;;
41309;SDS011;27057;51.438;-0.010;2022-11-30T08:31:25;68.80;;;20.70;;
41309;SDS011;27057;51.438;-0.010;2022-11-30T08:33:55;71.53;;;22.45;;
41309;SDS011;27057;51.438;-0.010;2022-11-30T08:36:24;53.63;;;18.05;;
41309;SDS011;27057;51.438;-0.010;2022-11-30T08:38:55;73.32;;;19.02;;
41309;SDS011;27057;51.438;-0.010;2022-11-30T08:41:24;57.33;;;18.00;;
41309;SDS011;27057;51.438;-0.010;2022-11-30T08:43:52;56.47;;;17.92;;
41309;SDS011;27057;51.438;-0.010;2022-11-30T08:46:20;65.88;;;20.35;;
41309;SDS011;27057;51.438;-0.010;2022-11-30T08:49:09;69.13;;;19.48;;
41309;SDS011;27057;51.438;-0.010;2022-11-30T08:51:52;73.75;;;21.25;;
41309;SDS011;27057;51.438;-0.010;2022-11-30T08:54:44;88.20;;;23.88;;
41309;SDS011;27057;51.438;-0.010;2022-11-30T08:57:32;76.97;;;24.50;;
41309;SDS011;27057;51.438;-0.010;2022-11-30T08:59:59;80.95;;;23.13;;
41309;SDS011;27057;51.438;-0.010;2022-11-30T09:02:27;72.18;;;24.45;;
41309;SDS011;27057;51.438;-0.010;2022-11-30T09:04:54;79.47;;;22.48;;
41309;SDS011;27057;51.438;-0.010;2022-11-30T09:07:21;75.32;;;21.92;;
41309;SDS011;27057;51.438;-0.010;2022-11-30T09:09:49;70.28;;;23.00;;
41309;SDS011;27057;51.438;-0.010;2022-11-30T09:12:16;73.70;;;23.40;;
41309;SDS011;27057;51.438;-0.010;2022-11-30T09:14:44;66.93;;;21.95;;
41309;SDS011;27057;51.438;-0.010;2022-11-30T09:17:13;80.88;;;23.35;;
41309;SDS011;27057;51.438;-0.010;2022-11-30T09:19:40;84.88;;;24.95;;
41309;SDS011;27057;51.438;-0.010;2022-11-30T09:22:07;74.63;;;23.83;;
41309;SDS011;27057;51.438;-0.010;2022-11-30T09:24:35;78.45;;;24.13;;
41309;SDS011;27057;51.438;-0.010;2022-11-30T09:27:03;91.38;;;24.13;;
41309;SDS011;27057;51.438;-0.010;2022-11-30T09:29:31;82.07;;;23.88;;
41309;SDS011;27057;51.438;-0.010;2022-11-30T09:31:58;87.47;;;23.73;;
41309;SDS011;27057;51.438;-0.010;2022-11-30T09:34:25;86.65;;;22.38;;
41309;SDS011;27057;51.438;-0.010;2022-11-30T09:36:52;83.00;;;22.83;;
41309;SDS011;27057;51.438;-0.010;2022-11-30T09:39:20;81.38;;;22.80;;
41309;SDS011;27057;51.438;-0.010;2022-11-30T09:49:33;58.97;;;18.92;;
41309;SDS011;27057;51.438;-0.010;2022-11-30T09:52:07;48.60;;;17.70;;
41309;SDS011;27057;51.438;-0.010;2022-11-30T09:54:42;50.17;;;16.73;;
41309;SDS011;27057;51.438;-0.010;2022-11-30T09:57:17;40.08;;;14.80;;
41309;SDS011;27057;51.438;-0.010;2022-11-30T09:59:48;41.65;;;14.60;;
41309;SDS011;27057;51.438;-0.010;2022-11-30T10:02:20;39.38;;;14.27;;
41309;SDS011;27057;51.438;-0.010;2022-11-30T10:05:23;42.78;;;14.98;;
41309;SDS011;27057;51.438;-0.010;2022-11-30T10:19:37;49.13;;;16.33;;
41309;SDS011;27057;51.438;-0.010;2022-11-30T10:25:09;44.80;;;16.13;;
41309;SDS011;27057;51.438;-0.010;2022-11-30T10:30:19;46.10;;;16.50;;
41309;SDS011;27057;51.438;-0.010;2022-11-30T10:32:53;39.17;;;14.38;;
41309;SDS011;27057;51.438;-0.010;2022-11-30T10:38:15;36.15;;;13.50;;
41309;SDS011;27057;51.438;-0.010;2022-11-30T10:43:42;42.40;;;15.57;;
41309;SDS011;27057;51.438;-0.010;2022-11-30T10:46:25;45.42;;;16.02;;
41309;SDS011;27057;51.438;-0.010;2022-11-30T10:48:57;34.40;;;12.77;;
41309;SDS011;27057;51.438;-0.010;2022-11-30T10:51:25;38.35;;;13.38;;
41309;SDS011;27057;51.438;-0.010;2022-11-30T10:53:53;32.55;;;13.30;;
41309;SDS011;27057;51.438;-0.010;2022-11-30T10:56:20;37.97;;;14.18;;
41309;SDS011;27057;51.438;-0.010;2022-11-30T10:58:57;40.80;;;13.85;;
41309;SDS011;27057;51.438;-0.010;2022-11-30T11:01:33;38.95;;;13.05;;
41309;SDS011;27057;51.438;-0.010;2022-11-30T11:04:08;31.27;;;13.55;;
41309;SDS011;27057;51.438;-0.010;2022-11-30T11:06:38;43.75;;;14.98;;
41309;SDS011;27057;51.438;-0.010;2022-11-30T11:09:21;38.03;;;14.68;;
41309;SDS011;27057;51.438;-0.010;2022-11-30T11:11:52;35.92;;;15.48;;
41309;SDS011;27057;51.438;-0.010;2022-11-30T11:14:22;38.38;;;15.30;;
41309;SDS011;27057;51.438;-0.010;2022-11-30T11:19:33;43.47;;;15.68;;
41309;SDS011;27057;51.438;-0.010;2022-11-30T11:24:50;42.77;;;15.33;;
41309;SDS011;27057;51.438;-0.010;2022-11-30T11:27:28;44.42;;;16.23;;
41309;SDS011;27057;51.438;-0.010;2022-11-30T11:29:59;42.67;;;15.27;;
41309;SDS011;27057;51.438;-0.010;2022-11-30T11:32:31;35.85;;;14.43;;
41309;SDS011;27057;51.438;-0.010;2022-11-30T11:34:59;34.33;;;14.65;;
41309;SDS011;27057;51.438;-0.010;2022-11-30T11:37:30;38.70;;;16.50;;
41309;SDS011;27057;51.438;-0.010;2022-11-30T11:45:17;35.22;;;15.82;;
41309;SDS011;27057;51.438;-0.010;2022-11-30T11:47:56;42.92;;;14.57;;
41309;SDS011;27057;51.438;-0.010;2022-11-30T11:50:33;35.90;;;15.68;;
41309;SDS011;27057;51.438;-0.010;2022-11-30T11:53:23;42.25;;;17.48;;
41309;SDS011;27057;51.438;-0.010;2022-11-30T11:56:26;38.80;;;14.88;;
41309;SDS011;27057;51.438;-0.010;2022-11-30T11:58:58;40.67;;;16.30;;
41309;SDS011;27057;51.438;-0.010;2022-11-30T12:06:57;48.13;;;18.30;;
41309;SDS011;27057;51.438;-0.010;2022-11-30T12:09:29;52.53;;;18.73;;
41309;SDS011;27057;51.438;-0.010;2022-11-30T12:12:00;41.10;;;17.15;;
41309;SDS011;27057;51.438;-0.010;2022-11-30T12:14:28;49.78;;;18.92;;
41309;SDS011;27057;51.438;-0.010;2022-11-30T12:17:07;36.53;;;16.15;;
41309;SDS011;27057;51.438;-0.010;2022-11-30T12:25:49;45.88;;;19.58;;
41309;SDS011;27057;51.438;-0.010;2022-11-30T12:28:58;42.38;;;16.42;;
41309;SDS011;27057;51.438;-0.010;2022-11-30T12:31:43;47.42;;;17.63;;
41309;SDS011;27057;51.438;-0.010;2022-11-30T12:34:33;48.88;;;18.42;;
41309;SDS011;27057;51.438;-0.010;2022-11-30T12:45:38;42.70;;;18.70;;
41309;SDS011;27057;51.438;-0.010;2022-11-30T12:48:52;47.92;;;17.58;;
41309;SDS011;27057;51.438;-0.010;2022-11-30T12:51:18;42.83;;;17.23;;
41309;SDS011;27057;51.438;-0.010;2022-11-30T12:57:26;52.67;;;20.77;;
41309;SDS011;27057;51.438;-0.010;2022-11-30T13:05:46;50.38;;;20.52;;
41309;SDS011;27057;51.438;-0.010;2022-11-30T13:08:27;48.13;;;18.58;;
41309;SDS011;27057;51.438;-0.010;2022-11-30T13:11:18;49.25;;;19.98;;
41309;SDS011;27057;51.438;-0.010;2022-11-30T13:13:51;36.72;;;17.85;;
41309;SDS011;27057;51.438;-0.010;2022-11-30T13:16:22;43.38;;;17.77;;
41309;SDS011;27057;51.438;-0.010;2022-11-30T13:18:51;37.05;;;17.05;;
41309;SDS011;27057;51.438;-0.010;2022-11-30T13:21:29;35.88;;;17.70;;
41309;SDS011;27057;51.438;-0.010;2022-11-30T13:24:12;38.47;;;18.05;;
41309;SDS011;27057;51.438;-0.010;2022-11-30T13:26:51;54.38;;;21.20;;
41309;SDS011;27057;51.438;-0.010;2022-11-30T13:32:33;48.23;;;20.87;;
41309;SDS011;27057;51.438;-0.010;2022-11-30T13:38:03;43.35;;;19.95;;
41309;SDS011;27057;51.438;-0.010;2022-11-30T13:43:29;50.20;;;21.77;;
41309;SDS011;27057;51.438;-0.010;2022-11-30T13:46:03;53.55;;;22.02;;
41309;SDS011;27057;51.438;-0.010;2022-11-30T13:48:40;48.88;;;21.75;;
41309;SDS011;27057;51.438;-0.010;2022-11-30T13:51:09;46.25;;;20.05;;
41309;SDS011;27057;51.438;-0.010;2022-11-30T13:53:38;42.42;;;19.77;;
41309;SDS011;27057;51.438;-0.010;2022-11-30T13:56:30;60.53;;;22.13;;
41309;SDS011;27057;51.438;-0.010;2022-11-30T14:00:00;45.45;;;19.80;;
41309;SDS011;27057;51.438;-0.010;2022-11-30T14:07:45;46.85;;;20.50;;
41309;SDS011;27057;51.438;-0.010;2022-11-30T14:10:28;48.78;;;21.05;;
41309;SDS011;27057;51.438;-0.010;2022-11-30T14:13:00;52.95;;;20.38;;
41309;SDS011;27057;51.438;-0.010;2022-11-30T14:20:38;45.38;;;17.95;;
41309;SDS011;27057;51.438;-0.010;2022-11-30T14:23:12;41.35;;;15.15;;
41309;SDS011;27057;51.438;-0.010;2022-11-30T14:25:48;39.53;;;15.88;;
41309;SDS011;27057;51.438;-0.010;2022-11-30T14:28:18;42.88;;;16.58;;
41309;SDS011;27057;51.438;-0.010;2022-11-30T14:30:53;33.28;;;15.00;;
41309;SDS011;27057;51.438;-0.010;2022-11-30T14:33:23;44.38;;;15.00;;
41309;SDS011;27057;51.438;-0.010;2022-11-30T14:35:56;36.67;;;16.60;;
41309;SDS011;27057;51.438;-0.010;2022-11-30T14:38:26;35.97;;;15.02;;
41309;SDS011;27057;51.438;-0.010;2022-11-30T14:40:56;39.25;;;16.05;;
41309;SDS011;27057;51.438;-0.010;2022-11-30T14:43:24;35.85;;;14.13;;
41309;SDS011;27057;51.438;-0.010;2022-11-30T14:46:15;36.03;;;15.60;;
41309;SDS011;27057;51.438;-0.010;2022-11-30T14:48:43;36.13;;;15.30;;
41309;SDS011;27057;51.438;-0.010;2022-11-30T14:51:11;33.40;;;15.93;;
41309;SDS011;27057;51.438;-0.010;2022-11-30T14:53:48;38.00;;;16.98;;
41309;SDS011;27057;51.438;-0.010;2022-11-30T14:56:24;34.83;;;16.20;;
41309;SDS011;27057;51.438;-0.010;2022-11-30T15:01:55;38.85;;;13.50;;
41309;SDS011;27057;51.438;-0.010;2022-11-30T15:04:24;26.25;;;12.25;;
41309;SDS011;27057;51.438;-0.010;2022-11-30T15:06:54;25.55;;;13.52;;
41309;SDS011;27057;51.438;-0.010;2022-11-30T15:09:23;30.52;;;12.57;;
41309;SDS011;27057;51.438;-0.010;2022-11-30T15:11:55;29.90;;;13.38;;
41309;SDS011;27057;51.438;-0.010;2022-11-30T15:14:23;37.75;;;14.70;;
41309;SDS011;27057;51.438;-0.010;2022-11-30T15:16:51;32.53;;;14.57;;
41309;SDS011;27057;51.438;-0.010;2022-11-30T15:19:24;33.95;;;13.90;;
41309;SDS011;27057;51.438;-0.010;2022-11-30T15:21:57;30.42;;;14.45;;
41309;SDS011;27057;51.438;-0.010;2022-11-30T15:24:25;32.05;;;13.23;;
41309;SDS011;27057;51.438;-0.010;2022-11-30T15:26:59;42.38;;;15.57;;
41309;SDS011;27057;51.438;-0.010;2022-11-30T15:29:38;31.85;;;14.43;;
41309;SDS011;27057;51.438;-0.010;2022-11-30T15:32:16;45.28;;;15.00;;
41309;SDS011;27057;51.438;-0.010;2022-11-30T15:34:49;39.80;;;15.20;;
41309;SDS011;27057;51.438;-0.010;2022-11-30T15:37:29;33.45;;;15.00;;
41309;SDS011;27057;51.438;-0.010;2022-11-30T15:40:01;34.00;;;15.43;;
41309;SDS011;27057;51.438;-0.010;2022-11-30T15:42:32;43.28;;;15.90;;
41309;SDS011;27057;51.438;-0.010;2022-11-30T15:45:06;42.63;;;15.90;;
41309;SDS011;27057;51.438;-0.010;2022-11-30T15:47:53;36.20;;;16.48;;
41309;SDS011;27057;51.438;-0.010;2022-11-30T15:52:56;43.05;;;16.25;;
41309;SDS011;27057;51.438;-0.010;2022-11-30T15:55:44;38.28;;;17.98;;
41309;SDS011;27057;51.438;-0.010;2022-11-30T16:03:32;44.13;;;18.63;;
41309;SDS011;27057;51.438;-0.010;2022-11-30T16:06:02;44.78;;;17.50;;
41309;SDS011;27057;51.438;-0.010;2022-11-30T16:08:31;51.40;;;19.00;;
41309;SDS011;27057;51.438;-0.010;2022-11-30T16:10:59;44.42;;;17.40;;
41309;SDS011;27057;51.438;-0.010;2022-11-30T16:13:33;46.22;;;18.65;;
41309;SDS011;27057;51.438;-0.010;2022-11-30T16:16:00;44.25;;;17.88;;
41309;SDS011;27057;51.438;-0.010;2022-11-30T16:18:28;52.97;;;21.48;;
41309;SDS011;27057;51.438;-0.010;2022-11-30T16:20:57;43.38;;;18.35;;
41309;SDS011;27057;51.438;-0.010;2022-11-30T16:23:25;58.42;;;20.25;;
41309;SDS011;27057;51.438;-0.010;2022-11-30T16:25:54;48.85;;;19.48;;
41309;SDS011;27057;51.438;-0.010;2022-11-30T16:28:21;49.83;;;20.27;;
41309;SDS011;27057;51.438;-0.010;2022-11-30T16:30:49;52.75;;;19.83;;
41309;SDS011;27057;51.438;-0.010;2022-11-30T16:33:18;47.95;;;19.65;;